logo
Search for airport 
image banner adimage banner adimage banner ad
image banner ad

OTBD - Doha Intl

Located in Doha, Qatar

ICAO - OTBD, IATA - DIA

Data provided by Airmate  

General information

Coordinates: N25°15'40" E51°33'54"
Elevation is 37 feet MSL.
 
View others Airports in Ad Dawhah Municipality

Operational data

Special qualification required
Current time UTC:
Current local time:
Weather
METAR: OTBD 220900Z 15014KT CAVOK 34/13 Q1009 NOSIG
TAF: TAF OTBD 220505Z 2206/2312 11010KT 8000 NSC TEMPO 2209/2215 11014G24KT PROB30 TEMPO 2206/2214 5000 -RA FEW040CU BKN100 BECMG 2221/2223 34015KT
View NOTAMs / SUP AIP / TFR affecting this airport [VIEW]
Communications frequencies: [VIEW]

Runways:

RWY identifierQFULength (ft)Width (ft)SurfaceLDA (ft)
15158°14993151ASP
33338°14993151ASP

Airport contact information

Address: Doha Qatar

Satellite view of OTBD